Nearby METAR Reports

 

KOXC - Oxford/Waterbury, Connecticut, USA
Distance from station: SE 8mi, 12km
Updated: Wed, 10-Feb-2016 1:55pm EST
Overcast
Overcast
 Wind from NW
Wind: NW 6 mph , 9 km/h
Temperature: 36°F , 2°C
Wind Chill: 31°F , -1°C
Dew Point: 19°F , -7°C
Humidity: 52%
Barometer: 29.56 inHg , 1001 hPa
Clouds: Overcast
Visibility: 10 miles , 16 km
Cloud details: Few Clouds 2300 ft
Overcast 4100 ft
2016/02/10 18:55 KOXC 101855Z 31005KT 10SM FEW023 OVC041 02/M07 A2956
KDXR - Danbury, Connecticut, USA
Distance from station: SW 19mi, 30km
Updated: Wed, 10-Feb-2016 1:53pm EST
Overcast
Overcast
 Wind from W
Wind: W 14 mph , 22 km/h, Gust: 20 mph , 31 km/h
Temperature: 37°F , 3°C
Wind Chill: 28°F , -2°C
Dew Point: 18°F , -8°C
Humidity: 45%
Barometer: 29.56 inHg , 1001 hPa
Clouds: Overcast
Visibility: 10 miles , 16 km
Cloud details: Overcast 4900 ft
2016/02/10 18:53 KDXR 101853Z 26012G17KT 10SM OVC049 03/M08 A2956 RMK AO2 SLP015 T00281083
 
KMMK - Meriden, Connecticut, USA
Distance from station: E 20mi, 33km
Updated: Wed, 10-Feb-2016 2:53pm EST
Overcast
Overcast
 Wind from varies
Wind: varies 3 mph , 6 km/h
Temperature: 39°F , 4°C
Dew Point: 25°F , -4°C
Humidity: 56%
Barometer: 29.57 inHg , 1001.4 hPa
Clouds: Overcast
Visibility: 10 miles , 16 km
Cloud details: Overcast 5000 ft
2016/02/10 19:53 KMMK 101953Z AUTO VRB03KT 10SM OVC050 04/M04 A2957 RMK AO2 SLP014 T00391039 TSNO
KBDR - Bridgeport, Connecticut, USA
Distance from station: S 27mi, 44km
Updated: Wed, 10-Feb-2016 2:52pm EST
Overcast
Overcast
 Wind from W
Wind: W 9 mph , 15 km/h
Temperature: 39°F , 4°C
Wind Chill: 33°F , 1°C
Dew Point: 23°F , -5°C
Humidity: 52%
Barometer: 29.58 inHg , 1001.7 hPa
Clouds: Overcast
Visibility: 10 miles , 16 km
Cloud details: Overcast 5500 ft
2016/02/10 19:52 KBDR 101952Z 27008KT 10SM OVC055 04/M05 A2958 RMK AO2 SLP017 T00441050
 
KHVN - New Haven/Tweed, Connecticut, USA
Distance from station: SE 27mi, 44km
Updated: Wed, 10-Feb-2016 2:53pm EST
Overcast
Overcast
 Wind from S
Wind: S 6 mph , 9 km/h
Temperature: 36°F , 2°C
Wind Chill: 31°F , -1°C
Dew Point: 28°F , -2°C
Humidity: 75%
Barometer: 29.57 inHg , 1001.4 hPa
Clouds: Overcast
Visibility: 10 miles , 16 km
Cloud details: Partly cloudy 4100 ft
Overcast 5000 ft
2016/02/10 19:53 KHVN 101953Z 17005KT 10SM SCT041 OVC050 02/M02 A2957 RMK AO2 SLP014 T00221022
KHFD - Hartford/Brainar, Connecticut, USA
Distance from station: ENE 32mi, 52km
Updated: Wed, 10-Feb-2016 2:53pm EST
Overcast
Overcast
 Wind from S
Wind: S 5 mph , 7 km/h
Temperature: 37°F , 3°C
Wind Chill: 33°F , 1°C
Dew Point: 30°F , -1°C
Humidity: 75%
Barometer: 29.57 inHg , 1001.4 hPa
Clouds: Overcast
Visibility: 10 miles , 16 km
Cloud details: Partly cloudy 4300 ft
Overcast 4900 ft
2016/02/10 19:53 KHFD 101953Z 18004KT 10SM SCT043 OVC049 03/M01 A2957 RMK AO2 SLP012 T00281011
 
KPOU - Poughkeepsie, New York, USA
Distance from station: W 35mi, 56km
Updated: Wed, 10-Feb-2016 2:53pm EST
Overcast
Overcast
 Wind from WSW
Wind: WSW 14 mph , 22 km/h
Temperature: 39°F , 4°C
Wind Chill: 31°F , -1°C
Dew Point: 19°F , -7°C
Humidity: 45%
Barometer: 29.58 inHg , 1001.7 hPa
Clouds: Overcast
Visibility: 10 miles , 16 km
Cloud details: Overcast 6000 ft
2016/02/10 19:53 KPOU 101953Z 25012KT 10SM OVC060 04/M07 A2958 RMK AO2 SLP013 T00391072
KBDL - Windsor Locks, Connecticut, USA
Distance from station: NE 38mi, 62km
Updated: Wed, 10-Feb-2016 2:51pm EST
Overcast
Overcast
 Wind from calm
Wind: Calm
Temperature: 34°F , 1°C
Dew Point: 28°F , -2°C
Humidity: 81%
Barometer: 29.55 inHg , 1000.7 hPa
Clouds: Overcast
Visibility: 7 miles , 11 km
Cloud details: Overcast 4600 ft
2016/02/10 19:51 KBDL 101951Z 00000KT 7SM OVC046 01/M02 A2955 RMK AO2 SLP008 T00111017
 
KSNC - Chester, Connecticut, USA
Distance from station: ESE 39mi, 63km
Updated: Wed, 10-Feb-2016 2:35pm EST
Overcast
Overcast
 Wind from WNW
Wind: WNW 3 mph , 6 km/h
Temperature: 36°F , 2°C
Dew Point: 30°F , -1°C
Humidity: 81%
Barometer: 29.56 inHg , 1001 hPa
Clouds: Overcast
Visibility: 10 miles , 16 km
Cloud details: Few Clouds 1600 ft
Overcast 4100 ft
2016/02/10 19:35 KSNC 101935Z AUTO 29003KT 10SM FEW016 OVC041 02/M01 A2956 RMK AO2
KHPN - White Plains, New York, USA
Distance from station: SW 42mi, 67km
Updated: Wed, 10-Feb-2016 1:56pm EST
Mostly cloudy
Mostly cloudy
 Wind from WNW
Wind: WNW 13 mph , 20 km/h
Temperature: 37°F , 3°C
Wind Chill: 29°F , -2°C
Dew Point: 19°F , -7°C
Humidity: 48%
Barometer: 29.57 inHg , 1001.4 hPa
Clouds: Mostly cloudy
Visibility: 10 miles , 16 km
Cloud details: Mostly cloudy 5000 ft
2016/02/10 18:56 KHPN 101856Z 29011KT 10SM BKN050 03/M07 A2957 RMK AO2 SLP020 T00281067
 
KSWF - Newburgh/Stewart, New York, USA
Distance from station: W 45mi, 72km
Updated: Wed, 10-Feb-2016 2:45pm EST
Overcast
Overcast
 Wind from W
Wind: W 12 mph , 19 km/h, Gust: 17 mph , 28 km/h
Temperature: 36°F , 2°C
Wind Chill: 28°F , -2°C
Dew Point: 19°F , -7°C
Humidity: 52%
Barometer: 29.58 inHg , 1001.7 hPa
Clouds: Overcast
Visibility: 20 miles , 32 km
Cloud details: Overcast 5000 ft
2016/02/10 19:45 KSWF 101945Z 28010G15KT 20SM OVC050 02/M07 A2958
KBAF - Westfield, Massachusetts, USA
Distance from station: NNE 50mi, 80km
Updated: Wed, 10-Feb-2016 2:53pm EST
Overcast
Overcast
 Wind from SSW
Wind: SSW 5 mph , 7 km/h
Temperature: 34°F , 1°C
Wind Chill: 29°F , -2°C
Dew Point: 28°F , -2°C
Humidity: 81%
Barometer: 29.54 inHg , 1000.3 hPa
Clouds: Overcast
Visibility: 10 miles , 16 km
Cloud details: Overcast 4800 ft
2016/02/10 19:53 KBAF 101953Z 20004KT 10SM OVC048 01/M02 A2954 RMK AO2 SLP012 T00061017